createdAt,value
2023-05-15T00:00:44.469Z,101593.94
2023-05-15T00:03:12.283Z,101586.84
2023-05-15T00:05:39.395Z,101595.59
2023-05-15T00:08:05.949Z,101570.69
2023-05-15T00:10:32.301Z,101587.84
2023-05-15T00:12:58.681Z,101578.28
2023-05-15T00:15:25.692Z,101581.13
2023-05-15T00:17:52.393Z,101567.66
2023-05-15T00:20:18.911Z,101550.81
2023-05-15T00:22:45.584Z,101566.47
2023-05-15T00:25:11.984Z,101578.78
2023-05-15T00:27:38.364Z,101578.28
2023-05-15T00:30:05.798Z,101581.28
2023-05-15T00:32:32.209Z,101578.44
2023-05-15T00:34:58.639Z,101567.13
2023-05-15T00:37:25.014Z,101572.00
2023-05-15T00:39:51.492Z,101573.22
2023-05-15T00:42:18.838Z,101543.75
2023-05-15T00:44:45.993Z,101555.19
2023-05-15T00:47:13.623Z,101533.63
2023-05-15T00:49:41.529Z,101559.22
2023-05-15T00:52:08.625Z,101572.38
2023-05-15T00:54:35.400Z,101572.00
2023-05-15T00:57:05.597Z,101567.97
2023-05-15T00:59:33.174Z,101568.50
2023-05-15T01:01:59.715Z,101563.44
2023-05-15T01:04:26.404Z,101564.47
2023-05-15T01:06:55.403Z,101568.16
2023-05-15T01:09:24.765Z,101569.00
2023-05-15T01:11:54.667Z,101566.44
2023-05-15T01:14:21.259Z,101556.03
2023-05-15T01:16:47.879Z,101549.78
2023-05-15T01:19:14.637Z,101548.13
2023-05-15T01:21:50.635Z,101566.66
2023-05-15T01:24:51.318Z,101565.63
2023-05-15T01:27:39.661Z,101563.63
2023-05-15T01:30:23.541Z,101574.41
2023-05-15T01:33:17.221Z,101566.47
2023-05-15T01:36:00.062Z,101569.00
2023-05-15T01:38:44.713Z,101563.44
2023-05-15T01:41:19.697Z,101560.91
2023-05-15T01:43:48.696Z,101561.41
2023-05-15T01:46:19.777Z,101562.78
2023-05-15T01:48:48.202Z,101563.63
2023-05-15T01:51:15.950Z,101554.81
2023-05-15T01:53:43.872Z,101574.69
2023-05-15T01:56:13.910Z,101571.69
2023-05-15T01:58:41.374Z,101570.16
2023-05-15T02:01:10.759Z,101569.97
2023-05-15T02:03:37.555Z,101573.00
2023-05-15T02:06:05.985Z,101572.34
2023-05-15T02:08:32.968Z,101574.03
2023-05-15T02:11:03.215Z,101556.84
2023-05-15T02:13:31.566Z,101573.69
2023-05-15T02:15:58.249Z,101578.66
2023-05-15T02:18:24.754Z,101569.59
2023-05-15T02:20:51.289Z,101576.88
2023-05-15T02:23:17.915Z,101571.81
2023-05-15T02:26:23.252Z,101568.31
2023-05-15T02:29:26.621Z,101567.63
2023-05-15T02:32:10.396Z,101558.00
2023-05-15T02:34:47.582Z,101562.94
2023-05-15T02:37:18.271Z,101549.28
2023-05-15T02:39:46.255Z,101555.50
2023-05-15T02:42:14.836Z,101539.00
2023-05-15T02:44:43.325Z,101518.88
2023-05-15T02:47:11.175Z,101556.47
2023-05-15T02:49:39.082Z,101539.28
2023-05-15T02:52:05.821Z,101543.19
2023-05-15T02:54:32.184Z,101533.25
2023-05-15T02:56:58.779Z,101535.84
2023-05-15T02:59:25.430Z,101537.69
2023-05-15T03:01:52.152Z,101535.00
2023-05-15T03:04:18.641Z,101540.72
2023-05-15T03:06:45.046Z,101535.31
2023-05-15T03:09:11.538Z,101529.59
2023-05-15T03:11:37.944Z,101497.28
2023-05-15T03:14:04.349Z,101521.69
2023-05-15T03:16:30.822Z,101530.59
2023-05-15T03:18:57.305Z,101527.41
2023-05-15T03:21:23.721Z,101531.91
2023-05-15T03:23:50.103Z,101531.72
2023-05-15T03:26:16.470Z,101532.41
2023-05-15T03:28:42.849Z,101532.25
2023-05-15T03:31:12.121Z,101530.31
2023-05-15T03:33:38.504Z,101520.41
2023-05-15T03:36:05.469Z,101530.28
2023-05-15T03:38:32.186Z,101540.94
2023-05-15T03:40:58.600Z,101550.38
2023-05-15T03:43:25.010Z,101539.97
2023-05-15T03:45:51.408Z,101511.03
2023-05-15T03:48:17.788Z,101534.59
2023-05-15T03:50:45.356Z,101541.84
2023-05-15T03:53:11.871Z,101532.94
2023-05-15T03:55:38.398Z,101541.03
2023-05-15T03:58:04.782Z,101545.88
2023-05-15T04:00:31.169Z,101538.34
2023-05-15T04:02:57.695Z,101509.59
2023-05-15T04:05:24.339Z,101537.28
2023-05-15T04:07:50.931Z,101519.59
2023-05-15T04:10:17.416Z,101487.97
2023-05-15T04:12:43.872Z,101538.31
2023-05-15T04:15:24.819Z,101552.63
2023-05-15T04:17:53.521Z,101551.81
2023-05-15T04:20:22.428Z,101553.56
2023-05-15T04:22:49.521Z,101549.94
2023-05-15T04:25:16.562Z,101549.63
2023-05-15T04:27:43.737Z,101534.09
2023-05-15T04:30:11.421Z,101525.88
2023-05-15T04:32:38.565Z,101500.38
2023-05-15T04:35:10.089Z,101549.28
2023-05-15T04:37:37.318Z,101538.63
2023-05-15T04:40:04.474Z,101541.25
2023-05-15T04:42:30.866Z,101547.84
2023-05-15T04:44:57.548Z,101548.25
2023-05-15T04:47:24.025Z,101549.09
2023-05-15T04:49:50.502Z,101552.88
2023-05-15T04:52:17.677Z,101525.91
2023-05-15T04:54:44.123Z,101550.03
2023-05-15T04:57:10.517Z,101548.78
2023-05-15T04:59:36.923Z,101541.63
2023-05-15T05:02:03.513Z,101536.94
2023-05-15T05:04:29.953Z,101541.34
2023-05-15T05:06:56.496Z,101531.09
2023-05-15T05:09:22.974Z,101547.50
2023-05-15T05:11:49.405Z,101550.63
2023-05-15T05:14:16.232Z,101553.28
2023-05-15T05:16:45.537Z,101556.66
2023-05-15T05:19:12.033Z,101530.56
2023-05-15T05:21:38.637Z,101545.53
2023-05-15T05:24:05.249Z,101517.75
2023-05-15T05:26:31.687Z,101546.22
2023-05-15T05:28:58.064Z,101546.47
2023-05-15T05:31:24.539Z,101543.94
2023-05-15T05:33:52.559Z,101545.16
2023-05-15T05:36:18.951Z,101540.81
2023-05-15T05:38:45.335Z,101542.84
2023-05-15T05:41:11.767Z,101549.94
2023-05-15T05:43:38.131Z,101543.91
2023-05-15T05:46:04.538Z,101560.50
2023-05-15T05:48:30.969Z,101538.97
2023-05-15T05:50:57.788Z,101529.75
2023-05-15T05:53:24.194Z,101565.97
2023-05-15T05:55:50.649Z,101562.19
2023-05-15T06:00:50.868Z,101560.25
2023-05-15T06:03:17.426Z,101561.16
2023-05-15T06:05:44.058Z,101551.94
2023-05-15T06:08:10.567Z,101523.19
2023-05-15T06:10:36.983Z,101535.47
2023-05-15T06:13:03.416Z,101513.41
2023-05-15T06:15:29.824Z,101562.22
2023-05-15T06:17:56.546Z,101563.22
2023-05-15T06:20:23.213Z,101557.97
2023-05-15T06:22:49.726Z,101563.25
2023-05-15T06:25:16.151Z,101563.25
2023-05-15T06:27:42.584Z,101561.38
2023-05-15T06:30:09.791Z,101559.53
2023-05-15T06:32:36.249Z,101557.34
2023-05-15T06:35:03.316Z,101556.84
2023-05-15T06:37:30.225Z,101542.72
2023-05-15T06:39:56.599Z,101564.31
2023-05-15T06:42:23.626Z,101544.06
2023-05-15T06:44:50.074Z,101539.72
2023-05-15T06:47:16.651Z,101550.31
2023-05-15T06:49:43.050Z,101538.34
2023-05-15T06:52:09.504Z,101529.63
2023-05-15T06:54:35.899Z,101542.06
2023-05-15T06:57:02.345Z,101540.31
2023-05-15T06:59:28.783Z,101545.28
2023-05-15T07:01:56.064Z,101541.28
2023-05-15T07:04:22.696Z,101535.41
2023-05-15T07:06:49.161Z,101521.38
2023-05-15T07:09:15.573Z,101503.00
2023-05-15T07:11:42.228Z,101529.81
2023-05-15T07:14:08.681Z,101530.47
2023-05-15T07:16:35.095Z,101521.75
2023-05-15T07:19:01.686Z,101523.34
2023-05-15T07:21:28.242Z,101531.88
2023-05-15T07:23:54.626Z,101539.78
2023-05-15T07:26:32.440Z,101531.16
2023-05-15T07:29:01.080Z,101528.41
2023-05-15T07:31:27.530Z,101522.00
2023-05-15T07:33:53.975Z,101530.16
2023-05-15T07:36:20.702Z,101520.22
2023-05-15T07:38:47.077Z,101520.84
2023-05-15T07:41:13.518Z,101523.56
2023-05-15T07:43:40.306Z,101520.09
2023-05-15T07:46:06.802Z,101521.06
2023-05-15T07:48:33.257Z,101515.53
2023-05-15T07:50:59.647Z,101504.59
2023-05-15T07:53:26.369Z,101519.88
2023-05-15T07:55:53.050Z,101478.72
2023-05-15T07:58:19.499Z,101511.22
2023-05-15T08:00:45.984Z,101508.94
2023-05-15T08:03:12.648Z,101491.78
2023-05-15T08:05:39.257Z,101475.47
2023-05-15T08:08:05.632Z,101513.53
2023-05-15T08:10:32.250Z,101524.41
2023-05-15T08:12:58.668Z,101490.09
2023-05-15T08:15:25.297Z,101518.19
2023-05-15T08:17:51.992Z,101516.50
2023-05-15T08:20:18.454Z,101518.69
2023-05-15T08:22:44.848Z,101517.72
2023-05-15T08:25:11.573Z,101513.97
2023-05-15T08:27:37.990Z,101508.78
2023-05-15T08:30:04.764Z,101513.56
2023-05-15T08:32:31.200Z,101501.47
2023-05-15T08:34:58.140Z,101493.47
2023-05-15T08:37:24.621Z,101474.44
2023-05-15T08:39:51.030Z,101502.22
2023-05-15T08:42:24.890Z,101504.03
2023-05-15T08:44:51.336Z,101493.25
2023-05-15T08:47:19.165Z,101484.34
2023-05-15T08:50:01.672Z,101487.63
2023-05-15T08:52:28.753Z,101482.63
2023-05-15T08:54:55.213Z,101474.81
2023-05-15T08:57:21.971Z,101481.56
2023-05-15T08:59:49.362Z,101480.91
2023-05-15T09:02:16.078Z,101484.63
2023-05-15T09:04:42.546Z,101474.09
2023-05-15T09:07:09.902Z,101479.03
2023-05-15T09:09:37.180Z,101482.41
2023-05-15T09:12:04.267Z,101476.53
2023-05-15T09:14:30.930Z,101459.50
2023-05-15T09:16:57.385Z,101459.66
2023-05-15T09:19:23.903Z,101476.41
2023-05-15T09:21:50.429Z,101465.09
2023-05-15T09:24:24.599Z,101466.44
2023-05-15T09:27:07.930Z,101463.09
2023-05-15T09:29:37.130Z,101464.00
2023-05-15T09:32:08.897Z,101466.59
2023-05-15T09:34:38.088Z,101479.81
2023-05-15T09:37:06.911Z,101475.56
2023-05-15T09:39:40.001Z,101476.69
2023-05-15T09:42:08.500Z,101473.84
2023-05-15T09:44:35.057Z,101471.88
2023-05-15T09:47:01.984Z,101454.09
2023-05-15T09:49:30.575Z,101476.81
2023-05-15T09:51:59.866Z,101441.38
2023-05-15T09:54:27.508Z,101468.84
2023-05-15T09:56:54.026Z,101471.19
2023-05-15T09:59:23.447Z,101466.44
2023-05-15T10:01:51.668Z,101468.72
2023-05-15T10:04:18.613Z,101472.38
2023-05-15T10:06:48.867Z,101474.91
2023-05-15T10:09:15.589Z,101468.78
2023-05-15T10:11:45.249Z,101458.84
2023-05-15T10:14:13.550Z,101463.16
2023-05-15T10:16:40.945Z,101467.38
2023-05-15T10:19:09.858Z,101440.06
2023-05-15T10:21:38.288Z,101462.97
2023-05-15T10:24:06.147Z,101453.09
2023-05-15T10:26:40.500Z,101455.31
2023-05-15T10:29:12.293Z,101447.44
2023-05-15T10:31:42.404Z,101467.09
2023-05-15T10:34:10.548Z,101451.28
2023-05-15T10:36:38.662Z,101472.53
2023-05-15T10:39:07.326Z,101426.97
2023-05-15T10:41:39.710Z,101430.19
2023-05-15T10:44:06.515Z,101459.75
2023-05-15T10:46:35.521Z,101447.78
2023-05-15T10:49:02.258Z,101435.94
2023-05-15T10:51:31.635Z,101463.31
2023-05-15T10:53:59.570Z,101453.03
2023-05-15T10:56:29.541Z,101451.88
2023-05-15T10:58:56.114Z,101432.94
2023-05-15T11:01:35.134Z,101451.97
2023-05-15T11:04:15.858Z,101449.38
2023-05-15T11:06:47.595Z,101449.34
2023-05-15T11:09:25.869Z,101450.28
2023-05-15T11:11:57.030Z,101433.78
2023-05-15T11:14:27.993Z,101446.72
2023-05-15T11:16:54.474Z,101455.47
2023-05-15T11:19:37.823Z,101460.09
2023-05-15T11:22:22.931Z,101460.88
2023-05-15T11:25:14.294Z,101463.13
2023-05-15T11:27:43.147Z,101427.47
2023-05-15T11:30:25.078Z,101450.75
2023-05-15T11:32:54.764Z,101463.22
2023-05-15T11:35:23.512Z,101445.75
2023-05-15T11:38:14.276Z,101443.72
2023-05-15T11:40:44.991Z,101429.78
2023-05-15T11:43:27.510Z,101438.03
2023-05-15T11:45:57.667Z,101422.59
2023-05-15T11:48:32.780Z,101424.47
2023-05-15T11:51:01.248Z,101408.88
2023-05-15T11:53:29.745Z,101407.53
2023-05-15T11:55:56.518Z,101420.00
2023-05-15T11:58:24.733Z,101440.78
2023-05-15T12:00:52.649Z,101449.75
2023-05-15T12:03:22.086Z,101408.66
2023-05-15T12:05:58.415Z,101438.09
2023-05-15T12:08:30.697Z,101424.09
2023-05-15T12:10:58.870Z,101434.47
2023-05-15T12:13:25.251Z,101446.34
2023-05-15T12:15:51.825Z,101440.31
2023-05-15T12:18:18.264Z,101450.19
2023-05-15T12:20:48.213Z,101452.31
2023-05-15T12:23:15.944Z,101443.22
2023-05-15T12:25:44.573Z,101432.94
2023-05-15T12:28:12.153Z,101431.53
2023-05-15T12:30:39.455Z,101437.72
2023-05-15T12:33:07.832Z,101450.88
2023-05-15T12:35:44.936Z,101439.56
2023-05-15T12:38:16.606Z,101452.81
2023-05-15T12:40:44.002Z,101432.78
2023-05-15T12:43:10.601Z,101452.16
2023-05-15T12:45:41.705Z,101454.75
2023-05-15T12:48:13.212Z,101441.41
2023-05-15T12:50:39.889Z,101453.38
2023-05-15T12:53:06.373Z,101469.91
2023-05-15T12:55:34.808Z,101450.91
2023-05-15T12:58:09.116Z,101460.03
2023-05-15T13:00:36.961Z,101440.50
2023-05-15T13:03:04.589Z,101461.06
2023-05-15T13:05:35.855Z,101443.75
2023-05-15T13:08:04.762Z,101427.84
2023-05-15T13:10:35.432Z,101419.59
2023-05-15T13:13:02.152Z,101417.56
2023-05-15T13:15:37.593Z,101432.19
2023-05-15T13:18:09.032Z,101442.09
2023-05-15T13:20:38.874Z,101445.53
2023-05-15T13:23:05.679Z,101441.41
2023-05-15T13:25:32.434Z,101423.53
2023-05-15T13:28:01.851Z,101452.94
2023-05-15T13:30:29.177Z,101451.50
2023-05-15T13:32:56.120Z,101451.41
2023-05-15T13:35:23.125Z,101445.81
2023-05-15T13:37:50.352Z,101423.22
2023-05-15T13:40:16.779Z,101444.94
2023-05-15T13:42:43.882Z,101442.75
2023-05-15T13:45:14.613Z,101446.81
2023-05-15T13:47:41.380Z,101436.53
2023-05-15T13:50:13.060Z,101450.97
2023-05-15T13:52:40.602Z,101446.69
2023-05-15T13:55:09.741Z,101463.56
2023-05-15T13:57:37.833Z,101464.75
2023-05-15T14:00:13.339Z,101425.00
2023-05-15T14:02:44.459Z,101453.19
2023-05-15T14:05:12.749Z,101459.56
2023-05-15T14:07:39.593Z,101452.53
2023-05-15T14:10:08.132Z,101445.81
2023-05-15T14:12:34.820Z,101461.75
2023-05-15T14:15:01.211Z,101466.06
2023-05-15T14:17:28.528Z,101457.91
2023-05-15T14:19:55.050Z,101468.88
2023-05-15T14:22:24.655Z,101467.50
2023-05-15T14:24:52.371Z,101475.22
2023-05-15T14:27:19.019Z,101471.34
2023-05-15T14:29:45.852Z,101471.88
2023-05-15T14:32:12.326Z,101470.06
2023-05-15T14:34:38.784Z,101464.00
2023-05-15T14:37:05.194Z,101471.88
2023-05-15T14:39:31.795Z,101472.53
2023-05-15T14:41:58.309Z,101473.91
2023-05-15T14:44:24.720Z,101481.78
2023-05-15T14:47:08.480Z,101473.28
2023-05-15T14:49:35.972Z,101472.91
2023-05-15T14:52:02.963Z,101471.91
2023-05-15T14:54:29.601Z,101473.94
2023-05-15T14:56:57.559Z,101477.41
2023-05-15T14:59:28.329Z,101490.88
2023-05-15T15:01:54.789Z,101491.81
2023-05-15T15:04:21.203Z,101477.16
2023-05-15T15:06:48.083Z,101498.69
2023-05-15T15:09:14.618Z,101477.72
2023-05-15T15:11:41.268Z,101473.38
2023-05-15T15:14:07.709Z,101475.97
2023-05-15T15:16:34.239Z,101495.06
2023-05-15T15:19:00.743Z,101503.75
2023-05-15T15:21:27.252Z,101502.22
2023-05-15T15:23:54.708Z,101517.06
2023-05-15T15:26:21.770Z,101517.97
2023-05-15T15:28:48.261Z,101491.00
2023-05-15T15:31:15.405Z,101513.22
2023-05-15T15:33:41.878Z,101515.81
2023-05-15T15:36:08.365Z,101523.63
2023-05-15T15:38:34.870Z,101524.38
2023-05-15T15:41:03.524Z,101518.75
2023-05-15T15:43:29.942Z,101518.91
2023-05-15T15:45:56.350Z,101528.63
2023-05-15T15:48:22.776Z,101525.25
2023-05-15T15:50:49.184Z,101510.34
2023-05-15T15:53:15.625Z,101521.41
2023-05-15T15:55:42.055Z,101519.69
2023-05-15T15:58:08.487Z,101523.69
2023-05-15T16:00:35.446Z,101525.31
2023-05-15T16:03:02.015Z,101529.63
2023-05-15T16:05:28.528Z,101534.44
2023-05-15T16:07:54.928Z,101528.09
2023-05-15T16:10:21.304Z,101540.41
2023-05-15T16:12:47.758Z,101540.91
2023-05-15T16:15:23.042Z,101542.97
2023-05-15T16:17:52.505Z,101545.81
2023-05-15T16:20:19.604Z,101542.38
2023-05-15T16:22:46.034Z,101537.03
2023-05-15T16:25:12.482Z,101552.66
2023-05-15T16:27:38.869Z,101552.09
2023-05-15T16:30:05.755Z,101550.50
2023-05-15T16:32:33.973Z,101553.78
2023-05-15T16:35:00.678Z,101558.00
2023-05-15T16:37:27.036Z,101564.53
2023-05-15T16:39:53.422Z,101569.94
2023-05-15T16:42:19.837Z,101564.13
2023-05-15T16:44:46.205Z,101562.25
2023-05-15T16:47:12.645Z,101565.78
2023-05-15T16:49:39.048Z,101575.94
2023-05-15T16:52:05.467Z,101574.53
2023-05-15T16:54:31.919Z,101581.41
2023-05-15T16:56:58.278Z,101582.47
2023-05-15T16:59:24.670Z,101584.63
2023-05-15T17:01:51.100Z,101585.84
2023-05-15T17:04:17.692Z,101592.06
2023-05-15T17:06:44.436Z,101599.97
2023-05-15T17:09:10.906Z,101593.97
2023-05-15T17:11:37.293Z,101602.03
2023-05-15T17:14:03.768Z,101609.34
2023-05-15T17:16:30.230Z,101606.53
2023-05-15T17:18:56.771Z,101609.75
2023-05-15T17:21:23.229Z,101612.16
2023-05-15T17:23:52.113Z,101609.13
2023-05-15T17:26:18.536Z,101624.09
2023-05-15T17:28:44.929Z,101620.47
2023-05-15T17:31:11.424Z,101623.53
2023-05-15T17:33:37.896Z,101637.22
2023-05-15T17:36:04.554Z,101613.94
2023-05-15T17:38:30.922Z,101626.50
2023-05-15T17:40:57.315Z,101643.31
2023-05-15T17:43:23.733Z,101631.59
2023-05-15T17:45:50.228Z,101643.91
2023-05-15T17:48:16.676Z,101648.31
2023-05-15T17:50:43.053Z,101651.03
2023-05-15T17:53:09.413Z,101642.03
2023-05-15T17:55:35.809Z,101650.97
2023-05-15T17:58:02.249Z,101644.09
2023-05-15T18:00:28.698Z,101649.81
2023-05-15T18:02:55.189Z,101650.84
2023-05-15T18:05:21.734Z,101662.09
2023-05-15T18:07:48.254Z,101660.91
2023-05-15T18:10:14.792Z,101658.19
2023-05-15T18:12:41.210Z,101659.66
2023-05-15T18:15:08.114Z,101667.06
2023-05-15T18:17:34.589Z,101668.75
2023-05-15T18:20:01.760Z,101658.47
2023-05-15T18:22:28.175Z,101665.06
2023-05-15T18:24:54.572Z,101676.88
2023-05-15T18:27:20.988Z,101680.22
2023-05-15T18:29:47.401Z,101681.56
2023-05-15T18:32:13.851Z,101691.19
2023-05-15T18:34:40.661Z,101696.59
2023-05-15T18:37:07.111Z,101693.03
2023-05-15T18:39:33.509Z,101695.09
2023-05-15T18:42:00.304Z,101691.66
2023-05-15T18:44:26.772Z,101697.41
2023-05-15T18:46:53.274Z,101698.09
2023-05-15T18:49:19.842Z,101700.09
2023-05-15T18:51:46.243Z,101703.50
2023-05-15T18:54:12.714Z,101701.31
2023-05-15T18:56:40.634Z,101710.19
2023-05-15T18:59:08.896Z,101702.13
2023-05-15T19:01:35.353Z,101701.13
2023-05-15T19:04:01.760Z,101711.91
2023-05-15T19:06:28.128Z,101715.44
2023-05-15T19:08:54.530Z,101707.19
2023-05-15T19:11:21.456Z,101702.13
2023-05-15T19:13:47.947Z,101718.28
2023-05-15T19:16:14.413Z,101711.19
2023-05-15T19:18:41.084Z,101716.28
2023-05-15T19:21:07.546Z,101719.84
2023-05-15T19:23:34.014Z,101730.41
2023-05-15T19:26:00.656Z,101733.13
2023-05-15T19:28:27.216Z,101730.06
2023-05-15T19:30:53.882Z,101726.72
2023-05-15T19:33:20.777Z,101716.75
2023-05-15T19:35:47.451Z,101737.47
2023-05-15T19:38:13.870Z,101740.19
2023-05-15T19:40:43.126Z,101727.34
2023-05-15T19:43:11.275Z,101739.69
2023-05-15T19:45:41.083Z,101732.03
2023-05-15T19:48:07.758Z,101743.13
2023-05-15T19:50:34.291Z,101704.84
2023-05-15T19:53:00.872Z,101747.06
2023-05-15T19:55:27.547Z,101731.00
2023-05-15T19:57:56.282Z,101757.31
2023-05-15T20:00:22.819Z,101723.59
2023-05-15T20:02:49.345Z,101756.41
2023-05-15T20:05:15.899Z,101736.41
2023-05-15T20:07:43.168Z,101762.75
2023-05-15T20:10:10.409Z,101764.47
2023-05-15T20:12:36.843Z,101768.97
2023-05-15T20:15:03.693Z,101777.38
2023-05-15T20:17:30.174Z,101775.34
2023-05-15T20:19:58.959Z,101775.53
2023-05-15T20:22:25.499Z,101773.28
2023-05-15T20:24:52.094Z,101779.47
2023-05-15T20:27:18.486Z,101778.47
2023-05-15T20:29:47.975Z,101778.41
2023-05-15T20:32:14.950Z,101775.66
2023-05-15T20:34:45.552Z,101779.13
2023-05-15T20:37:13.316Z,101786.94
2023-05-15T20:39:39.821Z,101779.69
2023-05-15T20:42:06.605Z,101785.56
2023-05-15T20:44:36.246Z,101774.66
2023-05-15T20:47:03.868Z,101767.38
2023-05-15T20:49:30.318Z,101786.09
2023-05-15T20:51:56.808Z,101791.44
2023-05-15T20:54:23.421Z,101782.41
2023-05-15T20:56:49.801Z,101778.66
2023-05-15T20:59:16.215Z,101782.41
2023-05-15T21:01:42.651Z,101793.59
2023-05-15T21:04:09.196Z,101760.34
2023-05-15T21:06:36.006Z,101773.47
2023-05-15T21:09:02.475Z,101790.41
2023-05-15T21:11:29.220Z,101792.25
2023-05-15T21:13:55.635Z,101802.69
2023-05-15T21:16:22.078Z,101787.81
2023-05-15T21:18:49.008Z,101777.50
2023-05-15T21:21:16.526Z,101785.75
2023-05-15T21:23:42.988Z,101768.84
2023-05-15T21:26:09.525Z,101810.72
2023-05-15T21:28:35.912Z,101812.16
2023-05-15T21:31:09.275Z,101804.84
2023-05-15T21:33:36.095Z,101816.28
2023-05-15T21:36:03.756Z,101814.53
2023-05-15T21:38:30.926Z,101801.31
2023-05-15T21:40:58.686Z,101825.38
2023-05-15T21:43:25.236Z,101822.97
2023-05-15T21:45:54.277Z,101832.66
2023-05-15T21:48:20.672Z,101826.66
2023-05-15T21:50:47.057Z,101809.06
2023-05-15T21:53:13.474Z,101838.41
2023-05-15T21:55:39.940Z,101838.50
2023-05-15T21:58:07.185Z,101832.88
2023-05-15T22:00:36.667Z,101841.09
2023-05-15T22:03:03.241Z,101841.94
2023-05-15T22:05:29.668Z,101847.09
2023-05-15T22:07:57.070Z,101836.88
2023-05-15T22:10:23.595Z,101812.66
2023-05-15T22:12:50.248Z,101844.34
2023-05-15T22:15:16.976Z,101824.09
2023-05-15T22:17:43.460Z,101844.19
2023-05-15T22:20:11.449Z,101847.41
2023-05-15T22:22:39.460Z,101827.88
2023-05-15T22:25:06.807Z,101849.56
2023-05-15T22:27:33.506Z,101854.34
2023-05-15T22:29:59.905Z,101849.56
2023-05-15T22:32:26.623Z,101849.78
2023-05-15T22:34:53.126Z,101845.09
2023-05-15T22:37:20.000Z,101845.47
2023-05-15T22:39:46.449Z,101846.03
2023-05-15T22:42:12.967Z,101847.31
2023-05-15T22:44:39.374Z,101851.84
2023-05-15T22:47:05.969Z,101845.81
2023-05-15T22:49:32.346Z,101845.34
2023-05-15T22:51:58.744Z,101850.19
2023-05-15T22:54:25.250Z,101849.22
2023-05-15T22:56:52.687Z,101854.84
2023-05-15T22:59:19.622Z,101834.59
2023-05-15T23:01:46.644Z,101856.72
2023-05-15T23:04:13.762Z,101863.41
2023-05-15T23:06:41.004Z,101865.09
2023-05-15T23:09:08.450Z,101864.63
2023-05-15T23:11:35.248Z,101871.13
2023-05-15T23:14:02.042Z,101870.59
2023-05-15T23:16:28.758Z,101871.44
2023-05-15T23:18:56.643Z,101850.97
2023-05-15T23:21:23.122Z,101869.59
2023-05-15T23:23:49.530Z,101872.31
2023-05-15T23:26:15.911Z,101870.59
2023-05-15T23:28:42.324Z,101871.38
2023-05-15T23:31:10.168Z,101855.72
2023-05-15T23:33:36.806Z,101878.22
2023-05-15T23:36:03.269Z,101873.97
2023-05-15T23:38:29.673Z,101877.69
2023-05-15T23:40:56.211Z,101877.84
2023-05-15T23:43:22.598Z,101875.50
2023-05-15T23:45:49.079Z,101885.94
2023-05-15T23:48:15.671Z,101890.41
2023-05-15T23:50:42.088Z,101886.41
2023-05-15T23:53:08.552Z,101886.50
2023-05-15T23:55:35.136Z,101877.78
2023-05-15T23:58:01.584Z,101884.63
